• Join FlightAware (Why Join?)
  • Login
  • US Flag 
11:38PM EDT


 

Airport Tracker/Info


-or-


 

Live Flight TrackerFlight Track Log ✈ ASQ6057 ✈ 23-Apr-2012 ✈ KORD - KBNA

Flight Track Log - Related Links

Times and Time Zones

All times are in EDT time to prevent confusion due to time zone crossing. See the ASQ6057 flight status page for this flight to view local times or setup timezone preferences in your user account.

Time Position Orientation Groundspeed Altitude Reporting Facility
EDT Latitude Longitude Course Direction KTS MPH feet Rate Location/Type
10:26PM 41.9553 -87.9000 77° East  Level FlightAware Approximate
10:26PM 41.9667 -87.8333 180° South 219 252 2,700  Level Chicago TRACON
10:27PM 41.9000 -87.8333 191° South 252 290 4,600 1,920 Climbing Chicago TRACON
10:29PM 41.7428 -87.8750 181° South 280 322 8,500 1,860 Climbing Chicago Center
10:30PM 41.6553 -87.8769 180° South 298 343 10,300 1,440 Climbing Chicago Center
10:31PM 41.5614 -87.8764 181° South 315 362 11,400 1,020 Climbing Chicago Center
10:32PM 41.4572 -87.8786 183° South 344 396 12,400 1,200 Climbing Chicago Center
10:33PM 41.3489 -87.8867 183° South 382 440 13,800 1,440 Climbing Chicago Center
10:34PM 41.2386 -87.8947 179° South 394 453 15,300 1,500 Climbing Chicago Center
10:35PM 41.1258 -87.8917 179° South 401 461 16,800 1,500 Climbing Chicago Center
10:36PM 41.0153 -87.8886 178° South 406 467 18,400 1,500 Climbing Chicago Center
10:37PM 40.9006 -87.8831 179° South 406 467 19,800 1,440 Climbing Chicago Center
10:38PM 40.7839 -87.8800 178° South 406 467 21,300 1,500 Climbing Chicago Center
10:39PM 40.6650 -87.8744 179° South 411 473 22,800 1,440 Climbing Chicago Center
10:40PM 40.5439 -87.8719 178° South 424 488 24,200 1,440 Climbing Chicago Center
10:41PM 40.4250 -87.8661 180° South 429 494 25,700 1,440 Climbing Chicago Center
10:42PM 40.3064 -87.8661 177° South 429 494 27,100 1,200 Climbing Chicago Center
10:43PM 40.2083 -87.8603 179° South 429 494 28,100 1,020 Climbing Chicago Center
10:45PM 40.0231 -87.8542 177° South 458 527 29,500 1,020 Climbing Indianapolis Center
10:46PM 39.9003 -87.8467 178° South 458 527 30,500 960 Climbing Indianapolis Center
10:47PM 39.7650 -87.8411 176° South 468 539 31,500 960 Climbing Indianapolis Center
10:48PM 39.6381 -87.8306 170° South 473 544 32,500 960 Climbing Indianapolis Center
10:49PM 39.5036 -87.7983 169° South 484 557 33,500 1,020 Climbing Indianapolis Center
10:50PM 39.3631 -87.7631 167° South 484 557 34,600 720 Climbing Indianapolis Center
10:51PM 39.2331 -87.7258 170° South 479 551 35,000 180 Climbing Indianapolis Center
10:52PM 39.1111 -87.6972 168° South 489 563 35,000  Level Indianapolis Center
10:53PM 38.9683 -87.6597 169° South 505 581 35,000  Level Indianapolis Center
10:54PM 38.8236 -87.6247 169° South 520 598 35,000  Level Indianapolis Center
10:55PM 38.6769 -87.5872 169° South 535 616 35,000  Level Indianapolis Center
10:56PM 38.5322 -87.5500 169° South 535 616 35,000  Level Indianapolis Center
10:57PM 38.3769 -87.5097 169° South 535 616 35,000 -480 Level Indianapolis Center
10:58PM 38.2383 -87.4758 169° South 529 609 34,100 -1,620 Descending Indianapolis Center
10:59PM 38.1019 -87.4422 168° South 516 594 31,800 -2,640 Descending Indianapolis Center
11:00PM 37.9653 -87.4061 169° South 506 582 28,900 -2,820 Descending Indianapolis Center
11:01PM 37.7453 -87.3519 169° South 506 582 24,200 -2,820 Descending Memphis Center
11:02PM 37.6156 -87.3203 169° South 487 560 21,200 -2,100 Descending Memphis Center
11:03PM 37.4919 -87.2911 170° South 461 531 20,000 -600 Descending Memphis Center
11:04PM 37.3514 -87.2600 167° South 461 531 20,000  Level Memphis Center
11:05PM 37.2214 -87.2233 167° South 473 544 20,000  Level Memphis Center
11:06PM 37.0956 -87.1867 158° South 473 544 20,000 -780 Level Memphis Center
11:07PM 36.9772 -87.1264 156° South 468 539 18,500 -1,500 Descending Memphis Center
11:08PM 36.8608 -87.0611 158° South 461 531 17,000 -1,500 Descending Memphis Center
11:09PM 36.7447 -87.0011 158° South 452 520 15,500 -1,500 Descending Memphis Center
11:10PM 36.6369 -86.9461 152° Southeast 447 514 14,000 -1,500 Descending Memphis Center
11:11PM 36.5436 -86.8856 149° Southeast 397 457 12,500 -1,380 Descending Memphis Center
11:12PM 36.4606 -86.8247 147° Southeast 387 445 11,300 -1,260 Descending Memphis Center
11:13PM 36.3817 -86.7611 148° Southeast 356 410 10,000 -1,500 Descending Memphis Center
11:14PM 36.3092 -86.7050 149° Southeast 319 367 8,300 -1,800 Descending Memphis Center
11:15PM 36.2303 -86.6469 149° Southeast 306 352 6,400 -1,500 Descending Memphis Center
11:16PM 36.1661 -86.5983 138° Southeast 290 334 5,300 -1,200 Descending Memphis Center
11:17PM 36.1144 -86.5417 138° Southeast 268 308 4,000 -1,320 Descending Memphis Center